sensor_id;sensor_type;location;lat;lon;timestamp;P1;durP1;ratioP1;P2;durP2;ratioP2
21360;SDS011;10839;43.206;23.550;2023-06-14T00:00:53;11.02;;;5.90;;
21360;SDS011;10839;43.206;23.550;2023-06-14T00:03:21;10.02;;;5.68;;
21360;SDS011;10839;43.206;23.550;2023-06-14T00:05:50;8.13;;;5.78;;
21360;SDS011;10839;43.206;23.550;2023-06-14T00:08:16;12.77;;;6.03;;
21360;SDS011;10839;43.206;23.550;2023-06-14T00:10:44;7.72;;;6.15;;
21360;SDS011;10839;43.206;23.550;2023-06-14T00:13:10;8.38;;;6.00;;
21360;SDS011;10839;43.206;23.550;2023-06-14T00:15:36;11.88;;;6.30;;
21360;SDS011;10839;43.206;23.550;2023-06-14T00:18:02;8.95;;;6.28;;
21360;SDS011;10839;43.206;23.550;2023-06-14T00:20:29;11.40;;;6.53;;
21360;SDS011;10839;43.206;23.550;2023-06-14T00:22:58;11.02;;;6.20;;
21360;SDS011;10839;43.206;23.550;2023-06-14T00:25:25;10.18;;;6.55;;
21360;SDS011;10839;43.206;23.550;2023-06-14T00:27:51;11.80;;;7.10;;
21360;SDS011;10839;43.206;23.550;2023-06-14T00:30:19;13.20;;;7.05;;
21360;SDS011;10839;43.206;23.550;2023-06-14T00:32:45;13.18;;;7.47;;
21360;SDS011;10839;43.206;23.550;2023-06-14T00:35:12;13.55;;;7.82;;
21360;SDS011;10839;43.206;23.550;2023-06-14T00:37:38;11.15;;;7.28;;
21360;SDS011;10839;43.206;23.550;2023-06-14T00:40:05;13.10;;;7.03;;
21360;SDS011;10839;43.206;23.550;2023-06-14T00:42:32;14.40;;;7.22;;
21360;SDS011;10839;43.206;23.550;2023-06-14T00:44:59;12.88;;;7.47;;
21360;SDS011;10839;43.206;23.550;2023-06-14T00:47:26;12.32;;;7.22;;
21360;SDS011;10839;43.206;23.550;2023-06-14T00:49:53;14.23;;;8.23;;
21360;SDS011;10839;43.206;23.550;2023-06-14T00:52:21;11.05;;;7.20;;
21360;SDS011;10839;43.206;23.550;2023-06-14T00:54:50;12.25;;;7.20;;
21360;SDS011;10839;43.206;23.550;2023-06-14T00:57:16;13.02;;;7.85;;
21360;SDS011;10839;43.206;23.550;2023-06-14T00:59:44;11.85;;;6.95;;
21360;SDS011;10839;43.206;23.550;2023-06-14T01:02:11;11.38;;;7.72;;
21360;SDS011;10839;43.206;23.550;2023-06-14T01:04:38;12.82;;;7.50;;
21360;SDS011;10839;43.206;23.550;2023-06-14T01:15:23;13.30;;;7.22;;
21360;SDS011;10839;43.206;23.550;2023-06-14T01:17:50;11.85;;;7.63;;
21360;SDS011;10839;43.206;23.550;2023-06-14T01:20:19;12.57;;;7.70;;
21360;SDS011;10839;43.206;23.550;2023-06-14T01:22:51;11.27;;;6.65;;
21360;SDS011;10839;43.206;23.550;2023-06-14T01:25:21;10.70;;;6.63;;
21360;SDS011;10839;43.206;23.550;2023-06-14T01:28:00;8.45;;;6.05;;
21360;SDS011;10839;43.206;23.550;2023-06-14T01:30:36;12.38;;;7.47;;
21360;SDS011;10839;43.206;23.550;2023-06-14T01:33:04;15.55;;;7.63;;
21360;SDS011;10839;43.206;23.550;2023-06-14T01:35:31;12.23;;;7.30;;
21360;SDS011;10839;43.206;23.550;2023-06-14T01:37:57;14.75;;;8.10;;
21360;SDS011;10839;43.206;23.550;2023-06-14T01:40:28;11.27;;;7.78;;
21360;SDS011;10839;43.206;23.550;2023-06-14T01:42:57;12.98;;;7.82;;
21360;SDS011;10839;43.206;23.550;2023-06-14T01:45:24;11.95;;;8.05;;
21360;SDS011;10839;43.206;23.550;2023-06-14T01:47:50;15.63;;;8.52;;
21360;SDS011;10839;43.206;23.550;2023-06-14T01:50:18;14.10;;;8.13;;
21360;SDS011;10839;43.206;23.550;2023-06-14T01:52:45;11.38;;;8.05;;
21360;SDS011;10839;43.206;23.550;2023-06-14T01:55:11;11.20;;;7.75;;
21360;SDS011;10839;43.206;23.550;2023-06-14T01:57:37;12.00;;;7.60;;
21360;SDS011;10839;43.206;23.550;2023-06-14T02:00:04;10.98;;;7.97;;
21360;SDS011;10839;43.206;23.550;2023-06-14T02:02:38;13.70;;;7.82;;
21360;SDS011;10839;43.206;23.550;2023-06-14T02:05:05;9.70;;;7.68;;
21360;SDS011;10839;43.206;23.550;2023-06-14T02:07:31;10.40;;;7.32;;
21360;SDS011;10839;43.206;23.550;2023-06-14T02:09:57;12.35;;;8.27;;
21360;SDS011;10839;43.206;23.550;2023-06-14T02:12:23;12.40;;;7.68;;
21360;SDS011;10839;43.206;23.550;2023-06-14T02:14:49;40.38;;;26.75;;
21360;SDS011;10839;43.206;23.550;2023-06-14T02:17:15;92.90;;;57.95;;
21360;SDS011;10839;43.206;23.550;2023-06-14T02:19:42;55.88;;;35.70;;
21360;SDS011;10839;43.206;23.550;2023-06-14T02:22:08;23.35;;;16.35;;
21360;SDS011;10839;43.206;23.550;2023-06-14T02:24:35;17.00;;;10.05;;
21360;SDS011;10839;43.206;23.550;2023-06-14T02:27:01;10.52;;;8.05;;
21360;SDS011;10839;43.206;23.550;2023-06-14T02:29:27;12.75;;;7.57;;
21360;SDS011;10839;43.206;23.550;2023-06-14T02:31:54;9.70;;;7.43;;
21360;SDS011;10839;43.206;23.550;2023-06-14T02:34:20;34.90;;;20.20;;
21360;SDS011;10839;43.206;23.550;2023-06-14T02:36:47;49.10;;;26.88;;
21360;SDS011;10839;43.206;23.550;2023-06-14T02:39:13;58.80;;;32.75;;
21360;SDS011;10839;43.206;23.550;2023-06-14T02:41:39;24.70;;;15.50;;
21360;SDS011;10839;43.206;23.550;2023-06-14T02:44:05;15.10;;;9.40;;
21360;SDS011;10839;43.206;23.550;2023-06-14T02:46:32;15.02;;;9.07;;
21360;SDS011;10839;43.206;23.550;2023-06-14T02:48:58;55.10;;;35.97;;
21360;SDS011;10839;43.206;23.550;2023-06-14T02:51:25;87.63;;;54.13;;
21360;SDS011;10839;43.206;23.550;2023-06-14T02:53:51;44.28;;;28.88;;
21360;SDS011;10839;43.206;23.550;2023-06-14T02:56:16;32.03;;;21.33;;
21360;SDS011;10839;43.206;23.550;2023-06-14T02:58:43;17.92;;;11.40;;
21360;SDS011;10839;43.206;23.550;2023-06-14T03:01:09;12.95;;;9.48;;
21360;SDS011;10839;43.206;23.550;2023-06-14T03:03:39;11.40;;;8.27;;
21360;SDS011;10839;43.206;23.550;2023-06-14T03:06:05;17.92;;;11.65;;
21360;SDS011;10839;43.206;23.550;2023-06-14T03:08:33;21.05;;;13.23;;
21360;SDS011;10839;43.206;23.550;2023-06-14T03:11:09;35.60;;;20.45;;
21360;SDS011;10839;43.206;23.550;2023-06-14T03:13:36;21.40;;;12.82;;
21360;SDS011;10839;43.206;23.550;2023-06-14T03:16:04;13.05;;;9.43;;
21360;SDS011;10839;43.206;23.550;2023-06-14T03:18:34;13.38;;;9.63;;
21360;SDS011;10839;43.206;23.550;2023-06-14T03:21:02;12.23;;;9.00;;
21360;SDS011;10839;43.206;23.550;2023-06-14T03:23:30;13.48;;;8.75;;
21360;SDS011;10839;43.206;23.550;2023-06-14T03:25:57;65.18;;;42.63;;
21360;SDS011;10839;43.206;23.550;2023-06-14T03:28:23;61.42;;;40.88;;
21360;SDS011;10839;43.206;23.550;2023-06-14T03:30:51;31.70;;;21.55;;
21360;SDS011;10839;43.206;23.550;2023-06-14T03:33:17;17.42;;;12.35;;
21360;SDS011;10839;43.206;23.550;2023-06-14T03:35:44;14.65;;;9.95;;
21360;SDS011;10839;43.206;23.550;2023-06-14T03:38:10;12.75;;;7.95;;
21360;SDS011;10839;43.206;23.550;2023-06-14T03:40:36;10.27;;;7.38;;
21360;SDS011;10839;43.206;23.550;2023-06-14T03:43:05;10.80;;;7.93;;
21360;SDS011;10839;43.206;23.550;2023-06-14T03:45:31;10.70;;;7.90;;
21360;SDS011;10839;43.206;23.550;2023-06-14T03:47:58;10.32;;;7.32;;
21360;SDS011;10839;43.206;23.550;2023-06-14T03:50:27;10.07;;;7.47;;
21360;SDS011;10839;43.206;23.550;2023-06-14T03:52:54;35.35;;;22.00;;
21360;SDS011;10839;43.206;23.550;2023-06-14T03:55:21;48.33;;;27.33;;
21360;SDS011;10839;43.206;23.550;2023-06-14T03:57:51;27.27;;;17.15;;
21360;SDS011;10839;43.206;23.550;2023-06-14T04:00:17;103.97;;;63.83;;
21360;SDS011;10839;43.206;23.550;2023-06-14T04:02:43;50.65;;;33.65;;
21360;SDS011;10839;43.206;23.550;2023-06-14T04:05:10;22.15;;;13.15;;
21360;SDS011;10839;43.206;23.550;2023-06-14T04:07:42;15.70;;;10.02;;
21360;SDS011;10839;43.206;23.550;2023-06-14T04:10:13;13.45;;;9.55;;
21360;SDS011;10839;43.206;23.550;2023-06-14T04:12:41;12.73;;;8.52;;
21360;SDS011;10839;43.206;23.550;2023-06-14T04:15:08;13.50;;;7.20;;
21360;SDS011;10839;43.206;23.550;2023-06-14T04:17:35;12.00;;;7.03;;
21360;SDS011;10839;43.206;23.550;2023-06-14T04:20:04;10.52;;;7.80;;
21360;SDS011;10839;43.206;23.550;2023-06-14T04:22:32;8.40;;;6.70;;
21360;SDS011;10839;43.206;23.550;2023-06-14T04:24:59;11.15;;;6.97;;
21360;SDS011;10839;43.206;23.550;2023-06-14T04:27:26;10.77;;;6.95;;
21360;SDS011;10839;43.206;23.550;2023-06-14T04:29:53;10.52;;;7.18;;
21360;SDS011;10839;43.206;23.550;2023-06-14T04:32:32;27.80;;;18.10;;
21360;SDS011;10839;43.206;23.550;2023-06-14T04:35:00;42.38;;;25.05;;
21360;SDS011;10839;43.206;23.550;2023-06-14T04:37:31;31.40;;;17.98;;
21360;SDS011;10839;43.206;23.550;2023-06-14T04:39:59;27.98;;;16.58;;
21360;SDS011;10839;43.206;23.550;2023-06-14T04:42:26;14.55;;;9.77;;
21360;SDS011;10839;43.206;23.550;2023-06-14T04:44:58;12.25;;;8.48;;
21360;SDS011;10839;43.206;23.550;2023-06-14T04:47:24;12.35;;;7.57;;
21360;SDS011;10839;43.206;23.550;2023-06-14T04:49:56;9.80;;;7.30;;
21360;SDS011;10839;43.206;23.550;2023-06-14T04:52:23;9.57;;;7.60;;
21360;SDS011;10839;43.206;23.550;2023-06-14T04:54:53;9.55;;;6.72;;
21360;SDS011;10839;43.206;23.550;2023-06-14T04:57:21;10.32;;;6.30;;
21360;SDS011;10839;43.206;23.550;2023-06-14T04:59:49;10.35;;;7.03;;
21360;SDS011;10839;43.206;23.550;2023-06-14T05:02:24;12.05;;;7.80;;
21360;SDS011;10839;43.206;23.550;2023-06-14T05:04:53;11.40;;;7.30;;
21360;SDS011;10839;43.206;23.550;2023-06-14T05:07:20;12.45;;;6.93;;
21360;SDS011;10839;43.206;23.550;2023-06-14T05:09:50;25.13;;;15.93;;
21360;SDS011;10839;43.206;23.550;2023-06-14T05:12:16;18.92;;;13.45;;
21360;SDS011;10839;43.206;23.550;2023-06-14T05:14:44;22.65;;;13.77;;
21360;SDS011;10839;43.206;23.550;2023-06-14T05:17:10;15.45;;;9.50;;
21360;SDS011;10839;43.206;23.550;2023-06-14T05:19:36;10.90;;;7.63;;
21360;SDS011;10839;43.206;23.550;2023-06-14T05:22:02;14.15;;;7.88;;
21360;SDS011;10839;43.206;23.550;2023-06-14T05:24:28;9.27;;;7.45;;
21360;SDS011;10839;43.206;23.550;2023-06-14T05:26:57;11.95;;;7.68;;
21360;SDS011;10839;43.206;23.550;2023-06-14T05:29:24;11.30;;;7.18;;
21360;SDS011;10839;43.206;23.550;2023-06-14T05:31:51;15.27;;;9.27;;
21360;SDS011;10839;43.206;23.550;2023-06-14T05:34:17;8.80;;;6.47;;
21360;SDS011;10839;43.206;23.550;2023-06-14T05:36:42;12.18;;;6.57;;
21360;SDS011;10839;43.206;23.550;2023-06-14T05:39:08;7.18;;;6.13;;
21360;SDS011;10839;43.206;23.550;2023-06-14T05:41:35;7.63;;;5.93;;
21360;SDS011;10839;43.206;23.550;2023-06-14T05:44:01;7.57;;;6.25;;
21360;SDS011;10839;43.206;23.550;2023-06-14T05:46:27;11.40;;;5.80;;
21360;SDS011;10839;43.206;23.550;2023-06-14T05:48:54;10.68;;;6.20;;
21360;SDS011;10839;43.206;23.550;2023-06-14T05:51:20;8.35;;;5.93;;
21360;SDS011;10839;43.206;23.550;2023-06-14T05:53:50;9.52;;;6.63;;
21360;SDS011;10839;43.206;23.550;2023-06-14T05:56:17;13.98;;;6.57;;
21360;SDS011;10839;43.206;23.550;2023-06-14T05:58:44;11.43;;;7.03;;
21360;SDS011;10839;43.206;23.550;2023-06-14T06:01:11;9.77;;;6.32;;
21360;SDS011;10839;43.206;23.550;2023-06-14T06:03:39;11.48;;;6.88;;
21360;SDS011;10839;43.206;23.550;2023-06-14T06:06:04;11.73;;;6.35;;
21360;SDS011;10839;43.206;23.550;2023-06-14T06:08:31;8.80;;;5.90;;
21360;SDS011;10839;43.206;23.550;2023-06-14T06:10:57;7.82;;;6.40;;
21360;SDS011;10839;43.206;23.550;2023-06-14T06:13:23;9.63;;;6.25;;
21360;SDS011;10839;43.206;23.550;2023-06-14T06:15:49;9.13;;;6.00;;
21360;SDS011;10839;43.206;23.550;2023-06-14T06:18:16;12.93;;;6.90;;
21360;SDS011;10839;43.206;23.550;2023-06-14T06:20:42;9.98;;;6.90;;
21360;SDS011;10839;43.206;23.550;2023-06-14T06:23:09;8.55;;;6.55;;
21360;SDS011;10839;43.206;23.550;2023-06-14T06:25:35;9.15;;;7.05;;
21360;SDS011;10839;43.206;23.550;2023-06-14T06:28:01;16.52;;;7.68;;
21360;SDS011;10839;43.206;23.550;2023-06-14T06:30:27;11.13;;;6.70;;
21360;SDS011;10839;43.206;23.550;2023-06-14T06:32:53;9.50;;;6.28;;
21360;SDS011;10839;43.206;23.550;2023-06-14T06:35:21;11.18;;;6.68;;
21360;SDS011;10839;43.206;23.550;2023-06-14T06:37:47;12.25;;;9.05;;
21360;SDS011;10839;43.206;23.550;2023-06-14T06:40:12;13.00;;;7.03;;
21360;SDS011;10839;43.206;23.550;2023-06-14T06:42:38;8.05;;;6.57;;
21360;SDS011;10839;43.206;23.550;2023-06-14T06:45:09;10.35;;;7.28;;
21360;SDS011;10839;43.206;23.550;2023-06-14T06:47:35;8.85;;;6.60;;
21360;SDS011;10839;43.206;23.550;2023-06-14T06:50:01;10.68;;;7.05;;
21360;SDS011;10839;43.206;23.550;2023-06-14T06:52:27;12.52;;;7.15;;
21360;SDS011;10839;43.206;23.550;2023-06-14T06:54:54;9.63;;;7.30;;
21360;SDS011;10839;43.206;23.550;2023-06-14T06:57:21;13.32;;;7.47;;
21360;SDS011;10839;43.206;23.550;2023-06-14T06:59:50;10.23;;;7.05;;
21360;SDS011;10839;43.206;23.550;2023-06-14T07:02:16;9.50;;;7.03;;
21360;SDS011;10839;43.206;23.550;2023-06-14T07:04:42;10.85;;;7.00;;
21360;SDS011;10839;43.206;23.550;2023-06-14T07:07:08;8.57;;;6.72;;
21360;SDS011;10839;43.206;23.550;2023-06-14T07:09:37;10.82;;;7.05;;
21360;SDS011;10839;43.206;23.550;2023-06-14T07:12:03;11.10;;;7.13;;
21360;SDS011;10839;43.206;23.550;2023-06-14T07:14:30;14.20;;;7.47;;
21360;SDS011;10839;43.206;23.550;2023-06-14T07:16:56;13.35;;;7.40;;
21360;SDS011;10839;43.206;23.550;2023-06-14T07:19:22;10.02;;;7.38;;
21360;SDS011;10839;43.206;23.550;2023-06-14T07:21:47;12.98;;;7.90;;
21360;SDS011;10839;43.206;23.550;2023-06-14T07:24:14;11.70;;;7.50;;
21360;SDS011;10839;43.206;23.550;2023-06-14T07:26:40;11.90;;;7.50;;
21360;SDS011;10839;43.206;23.550;2023-06-14T07:29:06;12.27;;;7.53;;
21360;SDS011;10839;43.206;23.550;2023-06-14T07:31:32;11.45;;;7.28;;
21360;SDS011;10839;43.206;23.550;2023-06-14T07:33:58;12.38;;;7.70;;
21360;SDS011;10839;43.206;23.550;2023-06-14T07:36:24;14.20;;;7.93;;
21360;SDS011;10839;43.206;23.550;2023-06-14T07:38:50;11.98;;;7.60;;
21360;SDS011;10839;43.206;23.550;2023-06-14T07:41:16;11.60;;;7.18;;
21360;SDS011;10839;43.206;23.550;2023-06-14T07:43:42;15.02;;;7.22;;
21360;SDS011;10839;43.206;23.550;2023-06-14T07:46:08;11.48;;;8.13;;
21360;SDS011;10839;43.206;23.550;2023-06-14T07:48:34;13.43;;;8.13;;
21360;SDS011;10839;43.206;23.550;2023-06-14T07:51:01;14.02;;;8.77;;
21360;SDS011;10839;43.206;23.550;2023-06-14T07:53:28;16.38;;;8.60;;
21360;SDS011;10839;43.206;23.550;2023-06-14T07:55:54;12.13;;;8.10;;
21360;SDS011;10839;43.206;23.550;2023-06-14T07:58:20;13.18;;;8.52;;
21360;SDS011;10839;43.206;23.550;2023-06-14T08:00:46;14.57;;;7.70;;
21360;SDS011;10839;43.206;23.550;2023-06-14T08:03:12;16.05;;;8.13;;
21360;SDS011;10839;43.206;23.550;2023-06-14T08:05:38;15.23;;;8.20;;
21360;SDS011;10839;43.206;23.550;2023-06-14T08:08:04;13.65;;;8.65;;
21360;SDS011;10839;43.206;23.550;2023-06-14T08:10:30;13.80;;;8.27;;
21360;SDS011;10839;43.206;23.550;2023-06-14T08:12:56;12.20;;;8.55;;
21360;SDS011;10839;43.206;23.550;2023-06-14T08:15:22;14.57;;;9.00;;
21360;SDS011;10839;43.206;23.550;2023-06-14T08:17:48;13.43;;;8.70;;
21360;SDS011;10839;43.206;23.550;2023-06-14T08:20:14;17.98;;;9.07;;
21360;SDS011;10839;43.206;23.550;2023-06-14T08:22:42;16.65;;;9.02;;
21360;SDS011;10839;43.206;23.550;2023-06-14T08:25:08;28.52;;;16.40;;
21360;SDS011;10839;43.206;23.550;2023-06-14T08:27:35;43.38;;;29.30;;
21360;SDS011;10839;43.206;23.550;2023-06-14T08:30:02;32.38;;;21.58;;
21360;SDS011;10839;43.206;23.550;2023-06-14T08:32:28;30.00;;;19.67;;
21360;SDS011;10839;43.206;23.550;2023-06-14T08:34:55;26.40;;;14.50;;
21360;SDS011;10839;43.206;23.550;2023-06-14T08:37:21;13.05;;;8.43;;
21360;SDS011;10839;43.206;23.550;2023-06-14T08:39:47;14.50;;;8.20;;
21360;SDS011;10839;43.206;23.550;2023-06-14T08:42:13;17.55;;;9.93;;
21360;SDS011;10839;43.206;23.550;2023-06-14T08:44:40;13.85;;;8.45;;
21360;SDS011;10839;43.206;23.550;2023-06-14T08:47:07;18.70;;;7.35;;
21360;SDS011;10839;43.206;23.550;2023-06-14T08:49:34;48.50;;;30.17;;
21360;SDS011;10839;43.206;23.550;2023-06-14T08:52:03;69.00;;;43.63;;
21360;SDS011;10839;43.206;23.550;2023-06-14T08:54:33;27.33;;;13.77;;
21360;SDS011;10839;43.206;23.550;2023-06-14T08:57:11;15.93;;;9.32;;
21360;SDS011;10839;43.206;23.550;2023-06-14T08:59:44;17.00;;;9.95;;
21360;SDS011;10839;43.206;23.550;2023-06-14T09:02:15;17.67;;;9.07;;
21360;SDS011;10839;43.206;23.550;2023-06-14T09:04:43;18.55;;;9.95;;
21360;SDS011;10839;43.206;23.550;2023-06-14T09:07:10;13.95;;;7.78;;
21360;SDS011;10839;43.206;23.550;2023-06-14T09:09:38;13.00;;;8.10;;
21360;SDS011;10839;43.206;23.550;2023-06-14T09:12:10;15.80;;;8.98;;
21360;SDS011;10839;43.206;23.550;2023-06-14T09:14:38;15.02;;;8.88;;
21360;SDS011;10839;43.206;23.550;2023-06-14T09:17:05;17.65;;;10.32;;
21360;SDS011;10839;43.206;23.550;2023-06-14T09:19:32;34.53;;;21.17;;
21360;SDS011;10839;43.206;23.550;2023-06-14T09:22:00;48.03;;;29.05;;
21360;SDS011;10839;43.206;23.550;2023-06-14T09:24:26;27.40;;;14.68;;
21360;SDS011;10839;43.206;23.550;2023-06-14T09:26:53;15.50;;;9.63;;
21360;SDS011;10839;43.206;23.550;2023-06-14T09:29:19;25.88;;;15.88;;
21360;SDS011;10839;43.206;23.550;2023-06-14T09:31:47;17.92;;;12.77;;
21360;SDS011;10839;43.206;23.550;2023-06-14T09:34:13;21.52;;;13.95;;
21360;SDS011;10839;43.206;23.550;2023-06-14T09:36:41;23.27;;;15.00;;
21360;SDS011;10839;43.206;23.550;2023-06-14T09:39:08;22.80;;;13.23;;
21360;SDS011;10839;43.206;23.550;2023-06-14T09:41:38;12.45;;;8.73;;
21360;SDS011;10839;43.206;23.550;2023-06-14T09:46:35;11.25;;;7.90;;
21360;SDS011;10839;43.206;23.550;2023-06-14T09:49:02;14.68;;;8.00;;
21360;SDS011;10839;43.206;23.550;2023-06-14T09:51:29;20.80;;;8.75;;
21360;SDS011;10839;43.206;23.550;2023-06-14T09:53:59;16.23;;;9.25;;
21360;SDS011;10839;43.206;23.550;2023-06-14T09:56:27;29.48;;;17.90;;
21360;SDS011;10839;43.206;23.550;2023-06-14T09:58:57;37.33;;;19.38;;
21360;SDS011;10839;43.206;23.550;2023-06-14T10:01:26;21.25;;;11.55;;
21360;SDS011;10839;43.206;23.550;2023-06-14T10:03:55;17.48;;;8.23;;
21360;SDS011;10839;43.206;23.550;2023-06-14T10:06:26;16.80;;;9.43;;
21360;SDS011;10839;43.206;23.550;2023-06-14T10:08:56;13.88;;;8.07;;
21360;SDS011;10839;43.206;23.550;2023-06-14T10:11:28;15.20;;;8.02;;
21360;SDS011;10839;43.206;23.550;2023-06-14T10:13:54;11.90;;;8.32;;
21360;SDS011;10839;43.206;23.550;2023-06-14T10:16:31;11.43;;;7.90;;
21360;SDS011;10839;43.206;23.550;2023-06-14T10:21:41;16.10;;;7.63;;
21360;SDS011;10839;43.206;23.550;2023-06-14T10:24:19;12.57;;;7.53;;
21360;SDS011;10839;43.206;23.550;2023-06-14T10:26:53;15.60;;;8.20;;
21360;SDS011;10839;43.206;23.550;2023-06-14T10:29:22;13.48;;;7.20;;
21360;SDS011;10839;43.206;23.550;2023-06-14T10:31:49;12.10;;;6.93;;
21360;SDS011;10839;43.206;23.550;2023-06-14T10:34:23;14.02;;;8.00;;
21360;SDS011;10839;43.206;23.550;2023-06-14T10:37:10;10.93;;;6.95;;
21360;SDS011;10839;43.206;23.550;2023-06-14T10:39:41;9.48;;;7.10;;
21360;SDS011;10839;43.206;23.550;2023-06-14T10:42:08;13.63;;;7.25;;
21360;SDS011;10839;43.206;23.550;2023-06-14T10:52:35;11.18;;;6.85;;
21360;SDS011;10839;43.206;23.550;2023-06-14T10:57:45;12.75;;;8.07;;
21360;SDS011;10839;43.206;23.550;2023-06-14T11:00:22;13.27;;;6.78;;
21360;SDS011;10839;43.206;23.550;2023-06-14T11:05:57;11.30;;;6.32;;
21360;SDS011;10839;43.206;23.550;2023-06-14T11:08:35;9.75;;;5.80;;
21360;SDS011;10839;43.206;23.550;2023-06-14T11:11:23;14.65;;;5.65;;
21360;SDS011;10839;43.206;23.550;2023-06-14T11:13:55;8.93;;;6.28;;
21360;SDS011;10839;43.206;23.550;2023-06-14T11:16:21;12.88;;;6.20;;
21360;SDS011;10839;43.206;23.550;2023-06-14T11:18:52;11.63;;;7.00;;
21360;SDS011;10839;43.206;23.550;2023-06-14T11:21:18;9.40;;;5.82;;
21360;SDS011;10839;43.206;23.550;2023-06-14T11:23:51;10.40;;;5.63;;
21360;SDS011;10839;43.206;23.550;2023-06-14T11:26:25;10.00;;;5.78;;
21360;SDS011;10839;43.206;23.550;2023-06-14T11:28:59;8.75;;;5.43;;
21360;SDS011;10839;43.206;23.550;2023-06-14T11:31:27;9.38;;;6.07;;
21360;SDS011;10839;43.206;23.550;2023-06-14T11:33:57;9.68;;;6.65;;
21360;SDS011;10839;43.206;23.550;2023-06-14T11:36:30;7.57;;;5.22;;
21360;SDS011;10839;43.206;23.550;2023-06-14T11:39:03;8.50;;;5.65;;
21360;SDS011;10839;43.206;23.550;2023-06-14T11:41:43;11.55;;;7.80;;
21360;SDS011;10839;43.206;23.550;2023-06-14T11:44:10;41.63;;;28.20;;
21360;SDS011;10839;43.206;23.550;2023-06-14T11:46:37;18.77;;;10.10;;
21360;SDS011;10839;43.206;23.550;2023-06-14T11:49:04;14.75;;;7.60;;
21360;SDS011;10839;43.206;23.550;2023-06-14T11:51:32;23.38;;;16.88;;
21360;SDS011;10839;43.206;23.550;2023-06-14T11:54:03;12.93;;;7.75;;
21360;SDS011;10839;43.206;23.550;2023-06-14T11:56:32;25.00;;;15.63;;
21360;SDS011;10839;43.206;23.550;2023-06-14T11:58:58;10.80;;;7.93;;
21360;SDS011;10839;43.206;23.550;2023-06-14T12:01:24;18.65;;;10.85;;
21360;SDS011;10839;43.206;23.550;2023-06-14T12:03:52;19.33;;;11.93;;
21360;SDS011;10839;43.206;23.550;2023-06-14T12:06:29;18.48;;;9.23;;
21360;SDS011;10839;43.206;23.550;2023-06-14T12:09:05;16.00;;;11.40;;
21360;SDS011;10839;43.206;23.550;2023-06-14T12:11:36;10.77;;;7.40;;
21360;SDS011;10839;43.206;23.550;2023-06-14T12:14:03;11.40;;;6.60;;
21360;SDS011;10839;43.206;23.550;2023-06-14T12:16:34;10.45;;;6.60;;
21360;SDS011;10839;43.206;23.550;2023-06-14T12:19:08;7.50;;;5.72;;
21360;SDS011;10839;43.206;23.550;2023-06-14T12:21:38;8.10;;;5.28;;
21360;SDS011;10839;43.206;23.550;2023-06-14T12:24:06;9.80;;;4.95;;
21360;SDS011;10839;43.206;23.550;2023-06-14T12:26:32;10.02;;;5.30;;
21360;SDS011;10839;43.206;23.550;2023-06-14T12:28:59;11.55;;;5.47;;
21360;SDS011;10839;43.206;23.550;2023-06-14T12:31:25;8.02;;;5.88;;
21360;SDS011;10839;43.206;23.550;2023-06-14T12:33:52;18.00;;;12.70;;
21360;SDS011;10839;43.206;23.550;2023-06-14T12:36:18;31.98;;;19.73;;
21360;SDS011;10839;43.206;23.550;2023-06-14T12:38:45;21.55;;;11.80;;
21360;SDS011;10839;43.206;23.550;2023-06-14T12:41:11;15.90;;;8.50;;
21360;SDS011;10839;43.206;23.550;2023-06-14T12:43:40;14.20;;;8.40;;
21360;SDS011;10839;43.206;23.550;2023-06-14T12:46:06;10.75;;;7.80;;
21360;SDS011;10839;43.206;23.550;2023-06-14T12:48:32;8.15;;;6.45;;
21360;SDS011;10839;43.206;23.550;2023-06-14T12:50:59;13.25;;;9.10;;
21360;SDS011;10839;43.206;23.550;2023-06-14T12:53:25;25.15;;;14.38;;
21360;SDS011;10839;43.206;23.550;2023-06-14T12:55:51;15.73;;;10.60;;
21360;SDS011;10839;43.206;23.550;2023-06-14T12:58:17;12.90;;;8.75;;
21360;SDS011;10839;43.206;23.550;2023-06-14T13:00:45;10.40;;;6.30;;
21360;SDS011;10839;43.206;23.550;2023-06-14T13:03:12;8.55;;;5.07;;
21360;SDS011;10839;43.206;23.550;2023-06-14T13:05:38;8.25;;;5.53;;
21360;SDS011;10839;43.206;23.550;2023-06-14T13:08:07;7.93;;;4.32;;
21360;SDS011;10839;43.206;23.550;2023-06-14T13:10:36;7.35;;;5.03;;
21360;SDS011;10839;43.206;23.550;2023-06-14T13:13:02;10.18;;;4.95;;
21360;SDS011;10839;43.206;23.550;2023-06-14T13:15:28;8.88;;;5.43;;
21360;SDS011;10839;43.206;23.550;2023-06-14T13:17:54;6.28;;;4.90;;
21360;SDS011;10839;43.206;23.550;2023-06-14T13:20:20;7.70;;;5.18;;
21360;SDS011;10839;43.206;23.550;2023-06-14T13:22:46;21.45;;;13.98;;
21360;SDS011;10839;43.206;23.550;2023-06-14T13:25:12;10.30;;;7.88;;
21360;SDS011;10839;43.206;23.550;2023-06-14T13:27:38;13.77;;;9.63;;
21360;SDS011;10839;43.206;23.550;2023-06-14T13:30:05;6.93;;;5.82;;
21360;SDS011;10839;43.206;23.550;2023-06-14T13:32:32;6.75;;;4.80;;
21360;SDS011;10839;43.206;23.550;2023-06-14T13:34:58;5.30;;;4.80;;
21360;SDS011;10839;43.206;23.550;2023-06-14T13:37:24;5.75;;;4.93;;
21360;SDS011;10839;43.206;23.550;2023-06-14T13:39:50;6.75;;;4.60;;
21360;SDS011;10839;43.206;23.550;2023-06-14T13:42:16;5.95;;;4.18;;
21360;SDS011;10839;43.206;23.550;2023-06-14T13:44:42;5.70;;;4.57;;
21360;SDS011;10839;43.206;23.550;2023-06-14T13:47:08;5.65;;;4.50;;
21360;SDS011;10839;43.206;23.550;2023-06-14T13:49:34;6.07;;;4.22;;
21360;SDS011;10839;43.206;23.550;2023-06-14T13:52:01;6.53;;;4.55;;
21360;SDS011;10839;43.206;23.550;2023-06-14T13:54:27;7.60;;;5.07;;
21360;SDS011;10839;43.206;23.550;2023-06-14T13:56:53;6.13;;;4.78;;
21360;SDS011;10839;43.206;23.550;2023-06-14T13:59:20;10.35;;;4.63;;
21360;SDS011;10839;43.206;23.550;2023-06-14T14:01:45;8.90;;;6.38;;
21360;SDS011;10839;43.206;23.550;2023-06-14T14:04:12;30.80;;;22.55;;
21360;SDS011;10839;43.206;23.550;2023-06-14T14:06:38;42.92;;;27.75;;
21360;SDS011;10839;43.206;23.550;2023-06-14T14:09:04;19.85;;;12.63;;
21360;SDS011;10839;43.206;23.550;2023-06-14T14:11:30;7.50;;;6.13;;
21360;SDS011;10839;43.206;23.550;2023-06-14T14:13:58;8.02;;;5.20;;
21360;SDS011;10839;43.206;23.550;2023-06-14T14:16:24;7.45;;;5.53;;
21360;SDS011;10839;43.206;23.550;2023-06-14T14:18:51;7.05;;;5.65;;
21360;SDS011;10839;43.206;23.550;2023-06-14T14:21:17;10.70;;;5.03;;
21360;SDS011;10839;43.206;23.550;2023-06-14T14:23:43;9.75;;;5.50;;
21360;SDS011;10839;43.206;23.550;2023-06-14T14:26:10;6.35;;;5.05;;
21360;SDS011;10839;43.206;23.550;2023-06-14T14:28:36;5.43;;;4.43;;
21360;SDS011;10839;43.206;23.550;2023-06-14T14:31:02;13.38;;;6.43;;
21360;SDS011;10839;43.206;23.550;2023-06-14T14:33:28;11.90;;;8.10;;
21360;SDS011;10839;43.206;23.550;2023-06-14T14:35:54;8.00;;;5.72;;
21360;SDS011;10839;43.206;23.550;2023-06-14T14:38:20;9.43;;;5.78;;
21360;SDS011;10839;43.206;23.550;2023-06-14T14:40:47;10.20;;;5.80;;
21360;SDS011;10839;43.206;23.550;2023-06-14T14:43:13;9.77;;;5.63;;
21360;SDS011;10839;43.206;23.550;2023-06-14T14:45:39;12.18;;;8.73;;
21360;SDS011;10839;43.206;23.550;2023-06-14T14:48:05;32.42;;;23.75;;
21360;SDS011;10839;43.206;23.550;2023-06-14T14:50:32;34.97;;;24.27;;